sensor_id;sensor_type;location;lat;lon;timestamp;pressure;altitude;pressure_sealevel;temperature;humidity
35694;BME280;21812;55.536;37.664;2023-04-23T00:00:33;99572.97;;;7.64;53.37
35694;BME280;21812;55.536;37.664;2023-04-23T00:03:05;99560.41;;;7.58;53.68
35694;BME280;21812;55.536;37.664;2023-04-23T00:05:35;99570.84;;;7.59;53.50
35694;BME280;21812;55.536;37.664;2023-04-23T00:08:02;99571.31;;;7.63;53.76
35694;BME280;21812;55.536;37.664;2023-04-23T00:10:28;99562.44;;;7.48;53.62
35694;BME280;21812;55.536;37.664;2023-04-23T00:12:54;99572.34;;;7.54;54.01
35694;BME280;21812;55.536;37.664;2023-04-23T00:15:20;99578.16;;;7.57;54.16
35694;BME280;21812;55.536;37.664;2023-04-23T00:17:47;99581.66;;;7.58;53.90
35694;BME280;21812;55.536;37.664;2023-04-23T00:20:16;99577.66;;;7.62;54.29
35694;BME280;21812;55.536;37.664;2023-04-23T00:22:42;99578.47;;;7.62;53.97
35694;BME280;21812;55.536;37.664;2023-04-23T00:25:09;99581.66;;;7.58;53.22
35694;BME280;21812;55.536;37.664;2023-04-23T00:27:35;99584.00;;;7.53;53.53
35694;BME280;21812;55.536;37.664;2023-04-23T00:30:02;99593.66;;;7.46;53.65
35694;BME280;21812;55.536;37.664;2023-04-23T00:32:33;99594.53;;;7.38;53.92
35694;BME280;21812;55.536;37.664;2023-04-23T00:34:59;99586.38;;;7.39;54.27
35694;BME280;21812;55.536;37.664;2023-04-23T00:37:25;99593.31;;;7.49;53.96
35694;BME280;21812;55.536;37.664;2023-04-23T00:39:51;99592.97;;;7.52;53.62
35694;BME280;21812;55.536;37.664;2023-04-23T00:42:17;99598.09;;;7.53;53.91
35694;BME280;21812;55.536;37.664;2023-04-23T00:44:42;99594.94;;;7.58;53.96
35694;BME280;21812;55.536;37.664;2023-04-23T00:47:10;99589.25;;;7.61;53.83
35694;BME280;21812;55.536;37.664;2023-04-23T00:49:37;99601.09;;;7.58;53.91
35694;BME280;21812;55.536;37.664;2023-04-23T00:52:04;99602.25;;;7.56;53.89
35694;BME280;21812;55.536;37.664;2023-04-23T00:54:30;99601.28;;;7.49;54.03
35694;BME280;21812;55.536;37.664;2023-04-23T00:56:56;99599.78;;;7.46;53.83
35694;BME280;21812;55.536;37.664;2023-04-23T00:59:24;99588.59;;;7.28;53.90
35694;BME280;21812;55.536;37.664;2023-04-23T01:01:51;99606.63;;;7.40;53.89
35694;BME280;21812;55.536;37.664;2023-04-23T01:04:18;99605.97;;;7.38;53.75
35694;BME280;21812;55.536;37.664;2023-04-23T01:06:44;99610.63;;;7.36;54.04
35694;BME280;21812;55.536;37.664;2023-04-23T01:09:14;99607.47;;;7.33;54.02
35694;BME280;21812;55.536;37.664;2023-04-23T01:11:42;99612.78;;;7.33;54.58
35694;BME280;21812;55.536;37.664;2023-04-23T01:14:08;99610.19;;;7.24;54.58
35694;BME280;21812;55.536;37.664;2023-04-23T01:16:35;99612.69;;;7.10;54.50
35694;BME280;21812;55.536;37.664;2023-04-23T01:19:07;99613.41;;;6.95;54.89
35694;BME280;21812;55.536;37.664;2023-04-23T01:21:35;99612.28;;;6.90;55.32
35694;BME280;21812;55.536;37.664;2023-04-23T01:24:03;99618.03;;;7.01;55.44
35694;BME280;21812;55.536;37.664;2023-04-23T01:26:28;99614.22;;;7.04;55.10
35694;BME280;21812;55.536;37.664;2023-04-23T01:28:55;99615.72;;;7.07;54.76
35694;BME280;21812;55.536;37.664;2023-04-23T01:31:21;99612.06;;;6.99;54.69
35694;BME280;21812;55.536;37.664;2023-04-23T01:33:48;99612.63;;;6.78;55.38
35694;BME280;21812;55.536;37.664;2023-04-23T01:36:15;99614.44;;;6.78;55.71
35694;BME280;21812;55.536;37.664;2023-04-23T01:38:41;99618.25;;;6.83;55.85
35694;BME280;21812;55.536;37.664;2023-04-23T01:41:07;99615.09;;;6.88;55.59
35694;BME280;21812;55.536;37.664;2023-04-23T01:43:33;99616.75;;;6.81;55.63
35694;BME280;21812;55.536;37.664;2023-04-23T01:45:59;99611.78;;;6.70;56.25
35694;BME280;21812;55.536;37.664;2023-04-23T01:48:27;99623.06;;;6.63;56.29
35694;BME280;21812;55.536;37.664;2023-04-23T01:50:53;99612.47;;;6.63;56.61
35694;BME280;21812;55.536;37.664;2023-04-23T01:53:19;99619.44;;;6.64;56.49
35694;BME280;21812;55.536;37.664;2023-04-23T01:55:46;99589.59;;;6.46;56.19
35694;BME280;21812;55.536;37.664;2023-04-23T01:58:12;99628.03;;;6.75;55.84
35694;BME280;21812;55.536;37.664;2023-04-23T02:00:38;99616.09;;;6.79;55.80
35694;BME280;21812;55.536;37.664;2023-04-23T02:03:04;99614.09;;;6.81;56.03
35694;BME280;21812;55.536;37.664;2023-04-23T02:05:33;99609.47;;;6.75;56.10
35694;BME280;21812;55.536;37.664;2023-04-23T02:08:01;99598.53;;;6.61;55.92
35694;BME280;21812;55.536;37.664;2023-04-23T02:10:27;99629.53;;;6.77;55.50
35694;BME280;21812;55.536;37.664;2023-04-23T02:12:56;99605.47;;;6.62;55.85
35694;BME280;21812;55.536;37.664;2023-04-23T02:15:22;99645.31;;;6.71;56.50
35694;BME280;21812;55.536;37.664;2023-04-23T02:17:48;99638.69;;;6.67;56.08
35694;BME280;21812;55.536;37.664;2023-04-23T02:20:17;99643.63;;;6.70;56.59
35694;BME280;21812;55.536;37.664;2023-04-23T02:22:44;99640.00;;;6.71;56.47
35694;BME280;21812;55.536;37.664;2023-04-23T02:25:10;99649.59;;;6.63;56.49
35694;BME280;21812;55.536;37.664;2023-04-23T02:27:36;99648.09;;;6.53;56.88
35694;BME280;21812;55.536;37.664;2023-04-23T02:30:02;99654.75;;;6.49;57.21
35694;BME280;21812;55.536;37.664;2023-04-23T02:32:30;99653.25;;;6.54;57.16
35694;BME280;21812;55.536;37.664;2023-04-23T02:34:56;99639.47;;;6.51;57.14
35694;BME280;21812;55.536;37.664;2023-04-23T02:37:23;99654.09;;;6.63;57.04
35694;BME280;21812;55.536;37.664;2023-04-23T02:39:49;99651.28;;;6.64;57.11
35694;BME280;21812;55.536;37.664;2023-04-23T02:42:15;99652.56;;;6.60;57.25
35694;BME280;21812;55.536;37.664;2023-04-23T02:44:40;99655.91;;;6.54;57.51
35694;BME280;21812;55.536;37.664;2023-04-23T02:47:06;99659.38;;;6.55;57.75
35694;BME280;21812;55.536;37.664;2023-04-23T02:49:32;99656.25;;;6.51;58.01
35694;BME280;21812;55.536;37.664;2023-04-23T02:51:57;99660.88;;;6.49;58.19
35694;BME280;21812;55.536;37.664;2023-04-23T02:54:23;99663.88;;;6.54;57.91
35694;BME280;21812;55.536;37.664;2023-04-23T02:56:49;99657.22;;;6.58;57.84
35694;BME280;21812;55.536;37.664;2023-04-23T02:59:15;99657.22;;;6.58;57.73
35694;BME280;21812;55.536;37.664;2023-04-23T03:01:41;99666.19;;;6.74;57.84
35694;BME280;21812;55.536;37.664;2023-04-23T03:04:09;99669.50;;;6.92;57.54
35694;BME280;21812;55.536;37.664;2023-04-23T03:06:35;99664.84;;;6.86;56.89
35694;BME280;21812;55.536;37.664;2023-04-23T03:09:01;99670.50;;;6.91;57.36
35694;BME280;21812;55.536;37.664;2023-04-23T03:11:27;99675.13;;;6.97;57.79
35694;BME280;21812;55.536;37.664;2023-04-23T03:13:53;99678.78;;;7.04;57.78
35694;BME280;21812;55.536;37.664;2023-04-23T03:16:19;99673.63;;;7.11;57.97
35694;BME280;21812;55.536;37.664;2023-04-23T03:18:45;99682.41;;;7.20;57.78
35694;BME280;21812;55.536;37.664;2023-04-23T03:21:11;99677.22;;;7.27;57.93
35694;BME280;21812;55.536;37.664;2023-04-23T03:23:37;99684.72;;;7.31;57.64
35694;BME280;21812;55.536;37.664;2023-04-23T03:26:03;99693.84;;;7.37;57.61
35694;BME280;21812;55.536;37.664;2023-04-23T03:28:29;99692.66;;;7.39;57.51
35694;BME280;21812;55.536;37.664;2023-04-23T03:30:55;99698.47;;;7.43;57.71
35694;BME280;21812;55.536;37.664;2023-04-23T03:33:21;99703.91;;;7.50;57.70
35694;BME280;21812;55.536;37.664;2023-04-23T03:35:47;99707.38;;;7.58;57.66
35694;BME280;21812;55.536;37.664;2023-04-23T03:38:18;99696.72;;;7.67;57.37
35694;BME280;21812;55.536;37.664;2023-04-23T03:40:44;99699.00;;;7.78;57.59
35694;BME280;21812;55.536;37.664;2023-04-23T03:43:11;99707.41;;;7.90;57.79
35694;BME280;21812;55.536;37.664;2023-04-23T03:45:59;99703.06;;;7.97;56.92
35694;BME280;21812;55.536;37.664;2023-04-23T03:48:27;99703.03;;;8.05;56.85
35694;BME280;21812;55.536;37.664;2023-04-23T03:50:52;99704.94;;;8.19;56.29
35694;BME280;21812;55.536;37.664;2023-04-23T03:53:35;99712.38;;;8.32;56.09
35694;BME280;21812;55.536;37.664;2023-04-23T03:56:19;99710.16;;;8.44;56.38
35694;BME280;21812;55.536;37.664;2023-04-23T03:58:56;99714.69;;;8.58;55.75
35694;BME280;21812;55.536;37.664;2023-04-23T04:01:21;99715.06;;;8.78;55.54
35694;BME280;21812;55.536;37.664;2023-04-23T04:03:49;99713.03;;;9.04;55.18
35694;BME280;21812;55.536;37.664;2023-04-23T04:06:15;99715.00;;;9.25;55.39
35694;BME280;21812;55.536;37.664;2023-04-23T04:08:41;99717.22;;;9.36;55.74
35694;BME280;21812;55.536;37.664;2023-04-23T04:11:06;99713.28;;;9.47;55.33
35694;BME280;21812;55.536;37.664;2023-04-23T04:13:32;99721.47;;;9.60;55.12
35694;BME280;21812;55.536;37.664;2023-04-23T04:15:58;99721.47;;;9.75;55.19
35694;BME280;21812;55.536;37.664;2023-04-23T04:18:24;99716.38;;;9.95;55.05
35694;BME280;21812;55.536;37.664;2023-04-23T04:20:49;99711.84;;;10.10;54.10
35694;BME280;21812;55.536;37.664;2023-04-23T04:23:16;99711.19;;;10.23;52.98
35694;BME280;21812;55.536;37.664;2023-04-23T04:25:42;99721.22;;;10.36;52.79
35694;BME280;21812;55.536;37.664;2023-04-23T04:28:07;99719.06;;;10.46;53.32
35694;BME280;21812;55.536;37.664;2023-04-23T04:30:36;99725.75;;;10.57;52.38
35694;BME280;21812;55.536;37.664;2023-04-23T04:33:02;99725.47;;;10.73;51.27
35694;BME280;21812;55.536;37.664;2023-04-23T04:35:28;99721.63;;;10.76;50.60
35694;BME280;21812;55.536;37.664;2023-04-23T04:37:54;99722.69;;;10.82;50.04
35694;BME280;21812;55.536;37.664;2023-04-23T04:40:20;99732.78;;;10.86;49.66
35694;BME280;21812;55.536;37.664;2023-04-23T04:42:46;99724.16;;;10.84;49.69
35694;BME280;21812;55.536;37.664;2023-04-23T04:45:11;99716.13;;;10.84;49.99
35694;BME280;21812;55.536;37.664;2023-04-23T04:47:37;99730.63;;;10.96;49.80
35694;BME280;21812;55.536;37.664;2023-04-23T04:50:03;99729.88;;;11.03;49.52
35694;BME280;21812;55.536;37.664;2023-04-23T04:52:30;99732.03;;;11.14;49.66
35694;BME280;21812;55.536;37.664;2023-04-23T04:54:55;99735.81;;;11.26;49.63
35694;BME280;21812;55.536;37.664;2023-04-23T04:57:21;99731.81;;;11.44;49.26
35694;BME280;21812;55.536;37.664;2023-04-23T04:59:48;99724.28;;;11.54;49.21
35694;BME280;21812;55.536;37.664;2023-04-23T05:02:14;99734.50;;;11.79;49.23
35694;BME280;21812;55.536;37.664;2023-04-23T05:04:40;99737.50;;;11.97;49.41
35694;BME280;21812;55.536;37.664;2023-04-23T05:07:06;99735.75;;;12.18;48.90
35694;BME280;21812;55.536;37.664;2023-04-23T05:09:32;99736.84;;;12.37;48.19
35694;BME280;21812;55.536;37.664;2023-04-23T05:11:59;99740.59;;;12.56;45.13
35694;BME280;21812;55.536;37.664;2023-04-23T05:14:26;99750.53;;;12.68;43.82
35694;BME280;21812;55.536;37.664;2023-04-23T05:16:51;99743.09;;;12.77;43.17
35694;BME280;21812;55.536;37.664;2023-04-23T05:19:17;99745.59;;;12.85;43.44
35694;BME280;21812;55.536;37.664;2023-04-23T05:21:43;99739.03;;;12.95;42.01
35694;BME280;21812;55.536;37.664;2023-04-23T05:24:08;99737.34;;;13.00;41.38
35694;BME280;21812;55.536;37.664;2023-04-23T05:26:35;99736.56;;;13.06;40.56
35694;BME280;21812;55.536;37.664;2023-04-23T05:29:00;99748.72;;;13.22;40.18
35694;BME280;21812;55.536;37.664;2023-04-23T05:31:26;99752.22;;;13.29;39.69
35694;BME280;21812;55.536;37.664;2023-04-23T05:33:52;99746.44;;;13.33;39.47
35694;BME280;21812;55.536;37.664;2023-04-23T05:36:17;99746.47;;;13.39;39.23
35694;BME280;21812;55.536;37.664;2023-04-23T05:38:43;99745.22;;;13.48;38.55
35694;BME280;21812;55.536;37.664;2023-04-23T05:41:09;99739.03;;;13.61;38.84
35694;BME280;21812;55.536;37.664;2023-04-23T05:43:35;99745.56;;;13.79;38.71
35694;BME280;21812;55.536;37.664;2023-04-23T05:46:00;99754.63;;;13.91;37.80
35694;BME280;21812;55.536;37.664;2023-04-23T05:48:28;99756.25;;;13.99;37.50
35694;BME280;21812;55.536;37.664;2023-04-23T05:50:54;99751.69;;;14.13;37.43
35694;BME280;21812;55.536;37.664;2023-04-23T05:53:20;99751.38;;;14.27;37.74
35694;BME280;21812;55.536;37.664;2023-04-23T05:55:45;99749.09;;;14.38;37.35
35694;BME280;21812;55.536;37.664;2023-04-23T05:58:11;99747.13;;;14.52;37.43
35694;BME280;21812;55.536;37.664;2023-04-23T06:00:37;99746.91;;;14.60;37.14
35694;BME280;21812;55.536;37.664;2023-04-23T06:03:05;99758.03;;;14.70;37.29
35694;BME280;21812;55.536;37.664;2023-04-23T06:05:31;99756.75;;;14.79;37.28
35694;BME280;21812;55.536;37.664;2023-04-23T06:07:57;99758.69;;;14.91;36.06
35694;BME280;21812;55.536;37.664;2023-04-23T06:10:23;99762.44;;;14.90;35.79
35694;BME280;21812;55.536;37.664;2023-04-23T06:12:49;99753.19;;;14.85;35.69
35694;BME280;21812;55.536;37.664;2023-04-23T06:15:15;99760.38;;;14.92;35.83
35694;BME280;21812;55.536;37.664;2023-04-23T06:17:41;99755.38;;;14.95;35.39
35694;BME280;21812;55.536;37.664;2023-04-23T06:20:07;99771.91;;;14.99;35.34
35694;BME280;21812;55.536;37.664;2023-04-23T06:22:35;99774.31;;;15.07;35.06
35694;BME280;21812;55.536;37.664;2023-04-23T06:25:01;99764.13;;;15.16;34.87
35694;BME280;21812;55.536;37.664;2023-04-23T06:27:26;99768.03;;;15.20;34.90
35694;BME280;21812;55.536;37.664;2023-04-23T06:29:56;99764.03;;;15.29;35.00
35694;BME280;21812;55.536;37.664;2023-04-23T06:32:22;99767.84;;;15.40;34.55
35694;BME280;21812;55.536;37.664;2023-04-23T06:34:48;99772.19;;;15.41;34.42
35694;BME280;21812;55.536;37.664;2023-04-23T06:37:14;99776.50;;;15.42;34.36
35694;BME280;21812;55.536;37.664;2023-04-23T06:39:39;99771.19;;;15.35;34.82
35694;BME280;21812;55.536;37.664;2023-04-23T06:42:05;99770.53;;;15.40;35.11
35694;BME280;21812;55.536;37.664;2023-04-23T06:44:34;99774.38;;;15.51;34.99
35694;BME280;21812;55.536;37.664;2023-04-23T06:47:00;99769.69;;;15.64;35.07
35694;BME280;21812;55.536;37.664;2023-04-23T06:49:26;99769.84;;;15.76;34.81
35694;BME280;21812;55.536;37.664;2023-04-23T06:51:52;99772.00;;;15.86;34.66
35694;BME280;21812;55.536;37.664;2023-04-23T06:54:17;99771.53;;;15.89;34.27
35694;BME280;21812;55.536;37.664;2023-04-23T06:56:43;99780.69;;;15.88;34.02
35694;BME280;21812;55.536;37.664;2023-04-23T06:59:09;99779.91;;;15.81;33.35
35694;BME280;21812;55.536;37.664;2023-04-23T07:01:43;99778.53;;;15.72;33.90
35694;BME280;21812;55.536;37.664;2023-04-23T07:04:09;99783.31;;;15.70;34.35
35694;BME280;21812;55.536;37.664;2023-04-23T07:06:35;99776.66;;;15.72;34.33
35694;BME280;21812;55.536;37.664;2023-04-23T07:09:01;99782.81;;;15.79;34.46
35694;BME280;21812;55.536;37.664;2023-04-23T07:11:27;99786.50;;;15.85;34.53
35694;BME280;21812;55.536;37.664;2023-04-23T07:13:54;99787.84;;;15.94;34.40
35694;BME280;21812;55.536;37.664;2023-04-23T07:16:19;99781.94;;;16.04;34.08
35694;BME280;21812;55.536;37.664;2023-04-23T07:18:47;99784.13;;;16.14;34.40
35694;BME280;21812;55.536;37.664;2023-04-23T07:21:12;99782.59;;;16.18;34.11
35694;BME280;21812;55.536;37.664;2023-04-23T07:23:38;99781.78;;;16.36;34.08
35694;BME280;21812;55.536;37.664;2023-04-23T07:26:04;99775.72;;;16.40;32.91
35694;BME280;21812;55.536;37.664;2023-04-23T07:28:30;99768.91;;;16.38;32.02
35694;BME280;21812;55.536;37.664;2023-04-23T07:30:56;99774.19;;;16.45;32.28
35694;BME280;21812;55.536;37.664;2023-04-23T07:33:22;99780.66;;;16.44;31.80
35694;BME280;21812;55.536;37.664;2023-04-23T07:35:48;99777.22;;;16.36;31.57
35694;BME280;21812;55.536;37.664;2023-04-23T07:38:13;99786.81;;;16.32;31.58
35694;BME280;21812;55.536;37.664;2023-04-23T07:40:39;99782.00;;;16.34;31.56
35694;BME280;21812;55.536;37.664;2023-04-23T07:43:05;99789.94;;;16.48;31.85
35694;BME280;21812;55.536;37.664;2023-04-23T07:45:30;99781.88;;;16.59;31.38
35694;BME280;21812;55.536;37.664;2023-04-23T07:47:56;99777.13;;;16.73;31.31
35694;BME280;21812;55.536;37.664;2023-04-23T07:50:23;99769.50;;;16.89;31.55
35694;BME280;21812;55.536;37.664;2023-04-23T07:52:49;99781.47;;;16.93;30.01
35694;BME280;21812;55.536;37.664;2023-04-23T07:55:15;99770.25;;;17.08;29.62
35694;BME280;21812;55.536;37.664;2023-04-23T07:57:40;99766.50;;;17.20;29.61
35694;BME280;21812;55.536;37.664;2023-04-23T08:00:06;99764.16;;;17.36;30.10
35694;BME280;21812;55.536;37.664;2023-04-23T08:02:38;99761.00;;;17.51;29.80
35694;BME280;21812;55.536;37.664;2023-04-23T08:05:05;99755.75;;;17.44;29.83
35694;BME280;21812;55.536;37.664;2023-04-23T08:07:31;99767.00;;;17.41;29.53
35694;BME280;21812;55.536;37.664;2023-04-23T08:09:57;99778.25;;;17.38;29.64
35694;BME280;21812;55.536;37.664;2023-04-23T08:12:30;99767.94;;;17.35;28.80
35694;BME280;21812;55.536;37.664;2023-04-23T08:14:56;99769.69;;;17.29;27.95
35694;BME280;21812;55.536;37.664;2023-04-23T08:17:31;99760.88;;;17.22;28.04
35694;BME280;21812;55.536;37.664;2023-04-23T08:19:57;99764.66;;;17.33;28.50
35694;BME280;21812;55.536;37.664;2023-04-23T08:22:23;99761.59;;;17.41;28.46
35694;BME280;21812;55.536;37.664;2023-04-23T08:24:48;99770.41;;;17.36;28.34
35694;BME280;21812;55.536;37.664;2023-04-23T08:27:14;99766.28;;;17.34;28.29
35694;BME280;21812;55.536;37.664;2023-04-23T08:29:40;99776.50;;;17.44;27.91
35694;BME280;21812;55.536;37.664;2023-04-23T08:32:05;99767.13;;;17.58;27.76
35694;BME280;21812;55.536;37.664;2023-04-23T08:34:31;99770.50;;;17.53;27.07
35694;BME280;21812;55.536;37.664;2023-04-23T08:36:57;99771.34;;;17.66;27.56
35694;BME280;21812;55.536;37.664;2023-04-23T08:39:22;99766.75;;;17.78;27.61
35694;BME280;21812;55.536;37.664;2023-04-23T08:41:53;99767.47;;;17.85;27.74
35694;BME280;21812;55.536;37.664;2023-04-23T08:44:24;99738.84;;;17.84;27.25
35694;BME280;21812;55.536;37.664;2023-04-23T08:46:53;99763.56;;;18.05;27.01
35694;BME280;21812;55.536;37.664;2023-04-23T08:49:20;99768.19;;;18.33;26.25
35694;BME280;21812;55.536;37.664;2023-04-23T08:51:49;99758.47;;;18.61;26.42
35694;BME280;21812;55.536;37.664;2023-04-23T08:54:27;99755.13;;;18.70;26.62
35694;BME280;21812;55.536;37.664;2023-04-23T08:56:57;99760.59;;;18.59;26.11
35694;BME280;21812;55.536;37.664;2023-04-23T08:59:29;99767.44;;;18.49;26.33
35694;BME280;21812;55.536;37.664;2023-04-23T09:01:55;99770.25;;;18.54;26.34
35694;BME280;21812;55.536;37.664;2023-04-23T09:04:22;99753.97;;;18.38;26.23
35694;BME280;21812;55.536;37.664;2023-04-23T09:06:50;99768.69;;;18.30;26.07
35694;BME280;21812;55.536;37.664;2023-04-23T09:09:16;99756.47;;;18.27;26.20
35694;BME280;21812;55.536;37.664;2023-04-23T09:11:43;99760.94;;;18.33;26.53
35694;BME280;21812;55.536;37.664;2023-04-23T09:14:09;99763.03;;;18.31;26.53
35694;BME280;21812;55.536;37.664;2023-04-23T09:16:37;99756.13;;;18.24;26.51
35694;BME280;21812;55.536;37.664;2023-04-23T09:19:07;99753.28;;;18.30;25.96
35694;BME280;21812;55.536;37.664;2023-04-23T09:21:35;99752.44;;;18.42;26.18
35694;BME280;21812;55.536;37.664;2023-04-23T09:24:08;99759.75;;;18.58;26.49
35694;BME280;21812;55.536;37.664;2023-04-23T09:26:43;99753.56;;;18.74;26.27
35694;BME280;21812;55.536;37.664;2023-04-23T09:29:17;99733.31;;;18.60;25.99
35694;BME280;21812;55.536;37.664;2023-04-23T09:31:48;99758.75;;;18.76;25.54
35694;BME280;21812;55.536;37.664;2023-04-23T09:34:19;99744.53;;;18.69;25.99
35694;BME280;21812;55.536;37.664;2023-04-23T09:36:47;99744.06;;;18.72;25.65
35694;BME280;21812;55.536;37.664;2023-04-23T09:39:18;99726.06;;;18.78;26.05
35694;BME280;21812;55.536;37.664;2023-04-23T09:41:44;99728.53;;;18.96;26.04
35694;BME280;21812;55.536;37.664;2023-04-23T09:44:20;99736.00;;;19.23;25.29
35694;BME280;21812;55.536;37.664;2023-04-23T09:46:50;99734.94;;;19.41;24.60
35694;BME280;21812;55.536;37.664;2023-04-23T09:49:16;99722.59;;;19.67;24.92
35694;BME280;21812;55.536;37.664;2023-04-23T09:51:44;99718.47;;;19.81;25.21
35694;BME280;21812;55.536;37.664;2023-04-23T09:54:17;99731.22;;;19.64;24.46
35694;BME280;21812;55.536;37.664;2023-04-23T09:56:44;99720.66;;;19.45;24.59
35694;BME280;21812;55.536;37.664;2023-04-23T09:59:24;99712.47;;;19.23;25.75
35694;BME280;21812;55.536;37.664;2023-04-23T10:01:50;99711.25;;;19.14;25.69
35694;BME280;21812;55.536;37.664;2023-04-23T10:04:18;99723.25;;;19.74;24.54
35694;BME280;21812;55.536;37.664;2023-04-23T10:06:55;99726.16;;;19.89;23.88
35694;BME280;21812;55.536;37.664;2023-04-23T10:09:21;99710.59;;;19.80;23.94
35694;BME280;21812;55.536;37.664;2023-04-23T10:12:01;99707.28;;;19.56;24.43
35694;BME280;21812;55.536;37.664;2023-04-23T10:14:28;99720.94;;;19.66;24.59
35694;BME280;21812;55.536;37.664;2023-04-23T10:16:59;99687.84;;;19.81;24.20
35694;BME280;21812;55.536;37.664;2023-04-23T10:19:26;99717.53;;;20.15;24.07
35694;BME280;21812;55.536;37.664;2023-04-23T10:21:55;99707.97;;;20.56;23.27
35694;BME280;21812;55.536;37.664;2023-04-23T10:24:25;99708.41;;;21.07;22.85
35694;BME280;21812;55.536;37.664;2023-04-23T10:26:56;99674.06;;;21.23;23.16
35694;BME280;21812;55.536;37.664;2023-04-23T10:29:28;99695.81;;;21.71;23.38
35694;BME280;21812;55.536;37.664;2023-04-23T10:31:56;99689.19;;;22.20;22.35
35694;BME280;21812;55.536;37.664;2023-04-23T10:34:24;99713.81;;;22.51;21.11
35694;BME280;21812;55.536;37.664;2023-04-23T10:36:51;99706.75;;;22.80;20.98
35694;BME280;21812;55.536;37.664;2023-04-23T10:39:21;99677.06;;;22.99;20.59
35694;BME280;21812;55.536;37.664;2023-04-23T10:41:47;99689.88;;;23.40;20.55
35694;BME280;21812;55.536;37.664;2023-04-23T10:44:14;99687.44;;;23.23;20.74
35694;BME280;21812;55.536;37.664;2023-04-23T10:46:51;99686.03;;;23.36;20.99
35694;BME280;21812;55.536;37.664;2023-04-23T10:49:17;99672.72;;;23.24;20.39
35694;BME280;21812;55.536;37.664;2023-04-23T10:51:46;99678.59;;;23.72;20.60
35694;BME280;21812;55.536;37.664;2023-04-23T10:54:18;99682.75;;;24.25;20.31
35694;BME280;21812;55.536;37.664;2023-04-23T10:56:44;99672.00;;;23.89;19.98
35694;BME280;21812;55.536;37.664;2023-04-23T10:59:20;99678.44;;;23.33;20.33
35694;BME280;21812;55.536;37.664;2023-04-23T11:01:47;99676.44;;;23.69;20.82
35694;BME280;21812;55.536;37.664;2023-04-23T11:04:28;99676.69;;;24.33;19.96
35694;BME280;21812;55.536;37.664;2023-04-23T11:06:56;99638.22;;;25.03;19.82
35694;BME280;21812;55.536;37.664;2023-04-23T11:09:38;99669.75;;;25.73;18.46
35694;BME280;21812;55.536;37.664;2023-04-23T11:12:50;99674.22;;;25.88;18.22
35694;BME280;21812;55.536;37.664;2023-04-23T11:14:52;99675.09;;;26.07;17.69
35694;BME280;21812;55.536;37.664;2023-04-23T11:20:11;99677.84;;;27.30;16.67
35694;BME280;21812;55.536;37.664;2023-04-23T11:22:45;99639.94;;;27.18;16.58
35694;BME280;21812;55.536;37.664;2023-04-23T11:25:21;99661.63;;;27.89;16.59
35694;BME280;21812;55.536;37.664;2023-04-23T11:27:49;99638.81;;;28.02;16.07
35694;BME280;21812;55.536;37.664;2023-04-23T11:30:22;99659.16;;;28.74;15.99
35694;BME280;21812;55.536;37.664;2023-04-23T11:32:50;99635.94;;;29.12;15.47
35694;BME280;21812;55.536;37.664;2023-04-23T11:35:18;99660.47;;;29.31;15.29
35694;BME280;21812;55.536;37.664;2023-04-23T11:37:45;99653.63;;;29.68;14.75
35694;BME280;21812;55.536;37.664;2023-04-23T11:40:16;99638.53;;;29.48;15.78
35694;BME280;21812;55.536;37.664;2023-04-23T11:42:48;99630.88;;;29.85;15.40
35694;BME280;21812;55.536;37.664;2023-04-23T11:45:15;99640.81;;;30.12;15.08
35694;BME280;21812;55.536;37.664;2023-04-23T11:47:42;99645.50;;;30.55;15.55
35694;BME280;21812;55.536;37.664;2023-04-23T11:50:09;99640.28;;;30.89;14.14
35694;BME280;21812;55.536;37.664;2023-04-23T11:52:35;99643.88;;;30.98;13.82
35694;BME280;21812;55.536;37.664;2023-04-23T11:55:07;99638.44;;;31.58;13.42
35694;BME280;21812;55.536;37.664;2023-04-23T11:57:40;99647.84;;;31.86;13.67
35694;BME280;21812;55.536;37.664;2023-04-23T12:00:25;99643.25;;;31.31;13.24
35694;BME280;21812;55.536;37.664;2023-04-23T12:02:56;99606.16;;;29.45;14.16
35694;BME280;21812;55.536;37.664;2023-04-23T12:07:52;99627.53;;;30.49;14.20
35694;BME280;21812;55.536;37.664;2023-04-23T12:10:19;99634.31;;;30.78;13.87
35694;BME280;21812;55.536;37.664;2023-04-23T12:12:52;99632.84;;;31.36;13.88
35694;BME280;21812;55.536;37.664;2023-04-23T12:15:18;99640.22;;;31.83;13.56
35694;BME280;21812;55.536;37.664;2023-04-23T12:17:49;99636.09;;;32.40;12.63
35694;BME280;21812;55.536;37.664;2023-04-23T12:20:17;99635.44;;;32.64;12.68
35694;BME280;21812;55.536;37.664;2023-04-23T12:22:43;99624.91;;;33.03;12.53
35694;BME280;21812;55.536;37.664;2023-04-23T12:25:09;99622.16;;;33.03;12.40
35694;BME280;21812;55.536;37.664;2023-04-23T12:27:38;99607.78;;;32.64;13.11
35694;BME280;21812;55.536;37.664;2023-04-23T12:30:06;99625.53;;;31.49;13.45
35694;BME280;21812;55.536;37.664;2023-04-23T12:32:33;99631.22;;;31.35;13.78
35694;BME280;21812;55.536;37.664;2023-04-23T12:34:58;99632.25;;;30.49;13.72
35694;BME280;21812;55.536;37.664;2023-04-23T12:37:29;99642.69;;;29.77;14.08
35694;BME280;21812;55.536;37.664;2023-04-23T12:39:56;99625.44;;;29.54;14.76
35694;BME280;21812;55.536;37.664;2023-04-23T12:42:24;99619.59;;;29.38;14.93
35694;BME280;21812;55.536;37.664;2023-04-23T12:44:50;99625.75;;;29.43;14.83
35694;BME280;21812;55.536;37.664;2023-04-23T12:47:16;99621.31;;;29.34;14.80
35694;BME280;21812;55.536;37.664;2023-04-23T12:49:45;99622.34;;;29.38;14.64
35694;BME280;21812;55.536;37.664;2023-04-23T12:52:11;99610.66;;;29.98;15.51
35694;BME280;21812;55.536;37.664;2023-04-23T12:54:38;99602.56;;;29.76;14.06
35694;BME280;21812;55.536;37.664;2023-04-23T12:57:06;99588.63;;;29.81;14.92
35694;BME280;21812;55.536;37.664;2023-04-23T12:59:33;99619.91;;;29.36;14.56